Time;durP1;ratioP1;P1;durP2;ratioP2;P2;SDS_P1;SDS_P2;PMS_P1;PMS_P2;Temp;Humidity;BMP_temperature;BMP_pressure;BME280_temperature;BME280_humidity;BME280_pressure;Samples;Min_cycle;Max_cycle;Signal;HPM_P1;HPM_P2
2022/03/15 00:01:04;;;;;;;5.13;2.65;;;;;;;8.08;68.35;97779.75;5112393;28;20473;-66
2022/03/15 00:03:29;;;;;;;3.83;2.33;;;;;;;7.62;69.77;97783.69;5112312;28;20392;-65
2022/03/15 00:05:55;;;;;;;4.07;2.53;;;;;;;7.76;69.34;97788.84;5094506;28;20418;-65
2022/03/15 00:08:20;;;;;;;3.80;2.50;;;;;;;7.71;69.42;97790.41;5094591;28;20473;-65
2022/03/15 00:10:47;;;;;;;4.50;2.40;;;;;;;7.65;70.07;97785.91;5112207;28;20389;-66
2022/03/15 00:13:13;;;;;;;5.28;2.80;;;;;;;8.09;68.38;97778.75;5092732;28;20475;-65
2022/03/15 00:15:42;;;;;;;6.33;2.73;;;;;;;8.16;68.08;97761.34;5112221;28;20883;-65
2022/03/15 00:18:08;;;;;;;7.30;2.70;;;;;;;7.81;69.07;97770.84;5112282;28;20445;-65
2022/03/15 00:20:33;;;;;;;4.70;2.70;;;;;;;7.75;69.25;97773.38;5112344;28;20400;-66
2022/03/15 00:23:00;;;;;;;3.75;2.67;;;;;;;7.84;68.97;97769.66;5111855;28;20396;-65
2022/03/15 00:25:26;;;;;;;4.10;2.47;;;;;;;7.84;69.21;97773.09;5112481;28;20483;-65
2022/03/15 00:27:52;;;;;;;4.63;2.50;;;;;;;7.99;68.55;97772.22;5111380;28;20479;-65
2022/03/15 00:30:20;;;;;;;4.53;2.38;;;;;;;8.00;68.46;97766.81;5111974;28;20970;-66
2022/03/15 00:32:47;;;;;;;3.63;2.70;;;;;;;7.86;68.71;97770.28;5112087;28;20392;-66
2022/03/15 00:35:19;;;;;;;6.07;2.60;;;;;;;8.16;67.81;97771.00;5112512;28;20388;-66
2022/03/15 00:37:50;;;;;;;5.03;2.88;;;;;;;8.09;68.12;97763.09;5094565;28;20903;-65
2022/03/15 00:40:17;;;;;;;3.33;2.47;;;;;;;7.97;68.20;97772.41;5111635;28;20411;-65
2022/03/15 00:42:46;;;;;;;3.97;2.80;;;;;;;7.76;69.34;97767.16;5111880;28;20399;-65
2022/03/15 00:45:12;;;;;;;2.97;2.50;;;;;;;7.74;69.09;97772.59;5111785;28;20392;-65
2022/03/15 00:47:37;;;;;;;3.87;2.43;;;;;;;7.44;70.34;97768.41;5112164;28;20864;-65
2022/03/15 00:50:03;;;;;;;4.00;2.30;;;;;;;7.84;68.77;97764.47;5112043;28;20383;-64
2022/03/15 00:52:29;;;;;;;4.82;2.53;;;;;;;7.92;68.74;97751.28;5112637;28;20385;-66
2022/03/15 00:54:55;;;;;;;3.83;2.30;;;;;;;7.89;68.77;97754.25;5112424;28;20883;-65
2022/03/15 00:57:21;;;;;;;3.33;2.30;;;;;;;7.72;69.41;97752.88;5111632;28;20396;-66
2022/03/15 00:59:46;;;;;;;4.97;2.50;;;;;;;7.88;68.63;97739.59;5112011;28;20460;-64
2022/03/15 01:02:12;;;;;;;4.77;2.50;;;;;;;7.81;68.96;97741.31;5112143;28;20853;-64
2022/03/15 01:04:37;;;;;;;4.13;2.50;;;;;;;7.84;69.01;97735.75;5093387;28;20447;-65
2022/03/15 01:07:03;;;;;;;4.50;2.90;;;;;;;7.75;69.12;97742.06;5111552;28;20431;-64
2022/03/15 01:09:28;;;;;;;5.03;2.77;;;;;;;7.33;70.34;97743.59;5111859;28;20396;-65
2022/03/15 01:11:53;;;;;;;4.47;2.80;;;;;;;7.32;70.94;97739.38;5112044;28;20455;-65
2022/03/15 01:14:20;;;;;;;5.70;3.00;;;;;;;7.47;70.58;97742.75;5111523;28;20384;-65
2022/03/15 01:16:46;;;;;;;3.22;2.58;;;;;;;7.35;71.07;97746.84;5112024;28;20388;-65
2022/03/15 01:19:11;;;;;;;5.30;2.65;;;;;;;7.38;71.29;97743.06;5103230;28;20384;-65
2022/03/15 01:21:39;;;;;;;3.72;2.70;;;;;;;7.80;69.31;97740.50;5111739;28;20410;-65
2022/03/15 01:24:09;;;;;;;5.03;2.77;;;;;;;7.74;69.27;97728.22;5111586;28;20464;-65
2022/03/15 01:26:35;;;;;;;5.32;2.55;;;;;;;7.72;68.86;97722.38;5111249;28;20841;-63
2022/03/15 01:29:01;;;;;;;4.45;2.60;;;;;;;7.60;69.57;97721.25;5111405;28;20388;-65
2022/03/15 01:31:27;;;;;;;4.10;2.50;;;;;;;7.57;69.60;97723.41;5093461;28;20388;-65
2022/03/15 01:33:53;;;;;;;7.03;2.67;;;;;;;7.54;69.91;97724.59;5111452;28;20392;-66
2022/03/15 01:36:18;;;;;;;4.85;2.95;;;;;;;7.41;70.38;97714.81;5111507;28;20392;-65
2022/03/15 01:38:44;;;;;;;6.70;2.70;;;;;;;7.49;70.30;97716.50;5110813;28;20482;-64
2022/03/15 01:41:09;;;;;;;6.20;2.87;;;;;;;7.35;70.87;97712.13;5111178;28;20408;-66
2022/03/15 01:43:35;;;;;;;4.73;2.70;;;;;;;7.41;70.98;97709.59;5111088;28;20399;-65
2022/03/15 01:46:01;;;;;;;3.78;2.60;;;;;;;7.76;69.79;97702.75;5111208;28;20407;-65
2022/03/15 01:48:26;;;;;;;3.53;2.70;;;;;;;7.85;68.35;97696.41;5111827;28;20388;-65
2022/03/15 01:50:52;;;;;;;3.55;2.70;;;;;;;7.61;69.40;97693.34;5112442;28;20380;-65
2022/03/15 01:53:17;;;;;;;4.67;2.30;;;;;;;7.77;68.24;97690.50;5114772;28;20722;-65
2022/03/15 01:55:42;;;;;;;4.60;2.60;;;;;;;7.84;68.27;97697.41;5115346;28;20395;-64
2022/03/15 01:58:08;;;;;;;3.17;2.42;;;;;;;7.59;68.95;97695.31;5096721;28;20399;-65
2022/03/15 02:00:34;;;;;;;4.30;2.50;;;;;;;7.29;70.28;97697.22;5096642;28;20819;-65
2022/03/15 02:03:01;;;;;;;4.43;2.42;;;;;;;7.36;70.13;97698.09;5095873;28;20782;-66
2022/03/15 02:05:27;;;;;;;4.22;2.35;;;;;;;7.56;69.88;97693.91;5114917;28;20732;-65
2022/03/15 02:07:52;;;;;;;3.97;2.60;;;;;;;7.34;70.12;97693.06;5114193;28;20392;-63
2022/03/15 02:10:17;;;;;;;4.70;2.78;;;;;;;7.55;69.66;97686.25;5115381;28;20869;-63
2022/03/15 02:12:43;;;;;;;4.73;2.70;;;;;;;7.28;70.77;97695.59;5114929;28;20854;-63
2022/03/15 02:15:09;;;;;;;6.00;2.73;;;;;;;7.18;71.24;97697.69;5114351;28;20399;-64
2022/03/15 02:17:34;;;;;;;6.17;2.83;;;;;;;7.32;70.91;97696.84;5114665;28;20388;-63
2022/03/15 02:20:12;;;;;;;3.67;2.50;;;;;;;7.19;71.04;97692.28;5113944;28;20483;-66
2022/03/15 02:22:38;;;;;;;4.20;2.60;;;;;;;7.31;70.70;97690.81;5114617;28;20818;-66
2022/03/15 02:25:03;;;;;;;4.93;2.80;;;;;;;7.22;71.20;97689.31;5114420;28;20396;-63
2022/03/15 02:27:29;;;;;;;5.50;2.45;;;;;;;7.71;68.55;97686.03;5114069;28;20408;-63
2022/03/15 02:29:54;;;;;;;4.47;2.40;;;;;;;7.51;68.80;97691.88;5114197;28;20715;-64
2022/03/15 02:32:21;;;;;;;4.00;2.40;;;;;;;7.39;69.16;97679.47;5114136;28;20388;-64
2022/03/15 02:34:46;;;;;;;4.63;2.60;;;;;;;7.56;69.00;97682.66;5114123;28;20385;-64
2022/03/15 02:37:12;;;;;;;3.60;2.53;;;;;;;7.40;69.39;97684.53;5113864;28;20930;-63
2022/03/15 02:39:37;;;;;;;5.33;3.10;;;;;;;7.39;69.73;97682.09;5113851;28;20404;-64
2022/03/15 02:42:02;;;;;;;5.67;2.70;;;;;;;7.67;68.69;97680.38;5114021;28;20396;-64
2022/03/15 02:44:28;;;;;;;5.03;2.60;;;;;;;7.60;68.91;97673.47;5113899;28;20880;-64
2022/03/15 02:46:53;;;;;;;6.50;2.90;;;;;;;7.53;68.55;97668.19;5114034;28;20454;-64
2022/03/15 02:49:19;;;;;;;4.50;2.70;;;;;;;7.69;68.21;97667.16;5095895;28;20741;-64
2022/03/15 02:51:45;;;;;;;5.43;2.60;;;;;;;7.47;68.65;97671.53;5114316;28;20385;-64
2022/03/15 02:54:11;;;;;;;4.43;2.65;;;;;;;7.47;68.62;97666.31;5114381;28;20396;-63
2022/03/15 02:56:42;;;;;;;5.72;2.72;;;;;;;7.40;69.20;97668.88;5113589;28;20384;-65
2022/03/15 02:59:14;;;;;;;4.50;2.38;;;;;;;7.40;69.08;97666.25;5113179;28;20395;-64
2022/03/15 03:01:41;;;;;;;5.05;2.45;;;;;;;7.74;67.49;97667.41;5101930;28;20387;-65
2022/03/15 03:04:07;;;;;;;3.95;2.40;;;;;;;7.63;67.76;97660.06;5113106;28;20423;-64
2022/03/15 03:06:32;;;;;;;3.85;2.50;;;;;;;7.39;69.00;97669.84;5113714;28;20439;-64
2022/03/15 03:08:58;;;;;;;6.30;3.03;;;;;;;7.44;69.32;97671.91;5113886;28;20404;-65
2022/03/15 03:11:23;;;;;;;4.23;2.33;;;;;;;7.34;69.96;97668.78;5113689;28;20441;-65
2022/03/15 03:13:52;;;;;;;3.47;2.60;;;;;;;7.46;69.76;97667.31;5113590;28;20418;-65
2022/03/15 03:16:18;;;;;;;3.80;2.30;;;;;;;7.50;69.58;97671.16;5106066;28;20501;-64
2022/03/15 03:18:43;;;;;;;6.40;2.58;;;;;;;7.21;70.70;97668.63;5113695;28;20384;-64
2022/03/15 03:21:09;;;;;;;7.55;2.53;;;;;;;7.55;69.23;97665.41;5113328;28;20384;-64
2022/03/15 03:23:35;;;;;;;5.47;2.70;;;;;;;7.63;67.88;97668.72;5113462;28;20400;-64
2022/03/15 03:26:04;;;;;;;3.90;2.38;;;;;;;7.28;70.13;97664.31;5112875;28;20433;-65
2022/03/15 03:28:36;;;;;;;4.68;2.60;;;;;;;7.47;68.57;97658.47;5113143;28;20392;-64
2022/03/15 03:31:03;;;;;;;3.63;2.30;;;;;;;7.78;67.16;97663.41;5112922;28;20689;-65
2022/03/15 03:33:30;;;;;;;6.13;3.08;;;;;;;8.15;66.18;97657.09;5099245;28;20397;-65
2022/03/15 03:35:56;;;;;;;5.67;2.70;;;;;;;7.85;66.82;97651.25;5094946;28;20718;-64
2022/03/15 03:38:22;;;;;;;5.25;2.60;;;;;;;7.77;67.01;97651.34;5113045;28;20854;-65
2022/03/15 03:40:48;;;;;;;5.93;2.72;;;;;;;7.56;68.07;97643.53;5093928;28;20444;-65
2022/03/15 03:43:13;;;;;;;3.07;2.77;;;;;;;7.69;67.75;97646.28;5094875;28;20750;-64
2022/03/15 03:45:39;;;;;;;4.20;2.50;;;;;;;7.45;68.60;97643.03;5112635;28;20529;-64
2022/03/15 03:48:05;;;;;;;3.60;2.60;;;;;;;7.79;67.28;97639.75;5112698;28;20392;-64
2022/03/15 03:50:31;;;;;;;4.50;2.55;;;;;;;7.80;67.32;97636.13;5112715;28;20737;-64
2022/03/15 03:52:56;;;;;;;4.97;2.90;;;;;;;7.89;67.18;97639.41;5113097;28;20464;-64
2022/03/15 03:55:21;;;;;;;4.37;2.53;;;;;;;7.48;68.48;97640.06;5112443;28;20394;-64
2022/03/15 03:57:48;;;;;;;4.68;2.85;;;;;;;7.42;68.73;97635.56;5112962;28;20416;-65
2022/03/15 04:00:14;;;;;;;4.30;2.65;;;;;;;7.28;69.96;97630.41;5112478;28;20453;-64
2022/03/15 04:02:39;;;;;;;4.30;2.87;;;;;;;7.30;69.99;97636.28;5094405;28;20479;-64
2022/03/15 04:05:05;;;;;;;3.77;2.77;;;;;;;7.18;70.81;97635.94;5111927;28;20741;-65
2022/03/15 04:07:31;;;;;;;5.70;2.72;;;;;;;7.17;71.08;97631.72;5112516;28;20873;-65
2022/03/15 04:09:56;;;;;;;3.63;2.67;;;;;;;7.19;71.03;97628.94;5094058;28;20753;-64
2022/03/15 04:12:22;;;;;;;5.03;2.47;;;;;;;7.18;70.97;97633.34;5112572;28;20524;-64
2022/03/15 04:14:48;;;;;;;2.97;2.42;;;;;;;7.06;71.23;97630.38;5111936;28;20376;-65
2022/03/15 04:17:14;;;;;;;6.15;2.78;;;;;;;7.08;71.19;97638.81;5094986;28;20495;-64
2022/03/15 04:19:40;;;;;;;4.47;2.53;;;;;;;7.08;71.15;97636.22;5112699;28;20547;-64
2022/03/15 04:22:05;;;;;;;6.00;2.80;;;;;;;7.14;70.85;97642.50;5112420;28;20376;-65
2022/03/15 04:24:32;;;;;;;4.53;2.50;;;;;;;7.09;71.25;97648.25;5111804;28;20384;-65
2022/03/15 04:27:01;;;;;;;3.97;2.38;;;;;;;7.12;71.30;97633.25;5111435;28;20780;-65
2022/03/15 04:29:27;;;;;;;5.73;2.80;;;;;;;7.16;70.82;97639.72;5112241;28;20385;-65
2022/03/15 04:31:52;;;;;;;3.80;2.60;;;;;;;7.16;70.54;97627.47;5112344;28;20868;-65
2022/03/15 04:34:18;;;;;;;3.20;2.60;;;;;;;7.08;70.55;97627.56;5094014;28;20385;-65
2022/03/15 04:36:44;;;;;;;5.47;2.75;;;;;;;7.16;70.61;97627.47;5111974;28;20389;-65
2022/03/15 04:39:10;;;;;;;4.28;2.85;;;;;;;7.10;71.18;97625.59;5111281;28;20549;-65
2022/03/15 04:41:36;;;;;;;3.35;2.42;;;;;;;7.08;71.02;97625.78;5112184;28;20475;-64
2022/03/15 04:44:02;;;;;;;4.60;2.80;;;;;;;7.19;70.39;97627.09;5111827;28;20453;-64
2022/03/15 04:46:28;;;;;;;4.32;2.72;;;;;;;7.63;69.47;97624.34;5112171;28;20400;-65
2022/03/15 04:48:54;;;;;;;4.17;2.70;;;;;;;7.37;70.11;97627.50;5111839;28;20392;-65
2022/03/15 04:51:20;;;;;;;3.87;2.40;;;;;;;7.09;71.28;97626.59;5111796;28;20538;-65
2022/03/15 04:53:46;;;;;;;4.85;2.63;;;;;;;6.99;72.31;97624.28;5093682;28;20869;-65
2022/03/15 04:56:11;;;;;;;6.05;2.60;;;;;;;7.36;70.67;97625.88;5111355;28;20388;-64
2022/03/15 04:58:37;;;;;;;5.17;2.53;;;;;;;7.29;70.25;97629.44;5111861;28;20384;-64
2022/03/15 05:01:03;;;;;;;5.15;2.80;;;;;;;7.11;71.14;97614.19;5111866;28;20380;-64
2022/03/15 05:03:28;;;;;;;4.93;2.83;;;;;;;6.95;71.76;97617.03;5111207;28;20467;-64
2022/03/15 05:05:53;;;;;;;4.67;2.20;;;;;;;7.02;71.83;97618.69;5093768;28;20865;-64
2022/03/15 05:08:19;;;;;;;5.05;2.63;;;;;;;7.06;71.25;97614.75;5111827;28;20392;-64
2022/03/15 05:13:28;;;;;;;5.50;2.90;;;;;;;7.46;70.08;97623.81;5111498;28;20411;-64
2022/03/15 05:15:54;;;;;;;6.60;3.20;;;;;;;6.99;71.49;97619.06;5093870;28;20471;-64
2022/03/15 05:18:20;;;;;;;6.57;3.40;;;;;;;6.83;72.89;97621.09;5111907;28;20753;-64
2022/03/15 05:20:45;;;;;;;3.85;3.03;;;;;;;6.78;73.42;97619.03;5111502;28;20399;-64
2022/03/15 05:23:11;;;;;;;5.90;3.10;;;;;;;6.60;74.89;97616.00;5111714;28;20734;-64
2022/03/15 05:25:36;;;;;;;6.20;3.03;;;;;;;6.61;74.32;97628.84;5095694;28;20453;-64
2022/03/15 05:28:02;;;;;;;4.73;3.03;;;;;;;6.66;74.43;97617.88;5115538;28;20486;-64
2022/03/15 05:30:27;;;;;;;6.67;3.30;;;;;;;7.18;72.71;97609.88;5115400;28;20455;-64
2022/03/15 05:32:53;;;;;;;4.78;3.15;;;;;;;6.92;73.25;97609.56;5114837;28;20433;-64
2022/03/15 05:35:18;;;;;;;5.20;3.13;;;;;;;6.89;72.53;97607.31;5115515;28;20880;-65
2022/03/15 05:37:44;;;;;;;7.07;3.43;;;;;;;7.03;72.41;97606.47;5115444;28;20395;-64
2022/03/15 05:40:10;;;;;;;7.63;3.47;;;;;;;6.85;72.99;97613.91;5115103;28;20408;-65
2022/03/15 05:42:35;;;;;;;4.75;2.90;;;;;;;7.16;72.06;97609.22;5097078;28;20396;-64
2022/03/15 05:45:02;;;;;;;5.20;3.15;;;;;;;7.31;71.10;97614.38;5115019;28;20888;-64
2022/03/15 05:47:28;;;;;;;5.57;3.30;;;;;;;6.84;72.43;97615.69;5115154;28;20789;-65
2022/03/15 05:49:53;;;;;;;4.70;2.90;;;;;;;7.02;71.61;97618.69;5115209;28;20392;-66
2022/03/15 05:52:19;;;;;;;5.28;3.20;;;;;;;6.93;72.09;97622.41;5115461;28;20452;-65
2022/03/15 05:54:44;;;;;;;4.43;2.90;;;;;;;6.96;71.91;97616.84;5114839;28;20457;-66
2022/03/15 05:57:09;;;;;;;6.07;2.90;;;;;;;6.94;71.92;97610.19;5096893;28;20437;-65
2022/03/15 05:59:35;;;;;;;3.43;3.00;;;;;;;7.07;71.40;97610.34;5115195;28;20884;-65
2022/03/15 06:02:00;;;;;;;7.22;3.70;;;;;;;7.26;70.56;97604.53;5096586;28;20449;-64
2022/03/15 06:04:26;;;;;;;4.33;3.10;;;;;;;7.11;71.23;97598.56;5114473;28;20392;-64
2022/03/15 06:06:55;;;;;;;7.57;3.27;;;;;;;7.46;70.11;97600.31;5096248;28;20482;-64
2022/03/15 06:09:20;;;;;;;4.50;3.05;;;;;;;7.41;70.61;97600.06;5114272;28;20388;-64
2022/03/15 06:11:46;;;;;;;5.32;3.10;;;;;;;7.32;70.71;97602.97;5113764;28;20393;-65
2022/03/15 06:14:12;;;;;;;6.10;3.25;;;;;;;7.32;70.66;97598.56;5114628;28;20749;-65
2022/03/15 06:16:37;;;;;;;5.70;2.78;;;;;;;7.00;71.86;97593.81;5096412;28;20395;-65
2022/03/15 06:19:03;;;;;;;7.37;3.50;;;;;;;7.41;71.03;97591.44;5115085;28;20388;-66
2022/03/15 06:21:28;;;;;;;5.95;3.28;;;;;;;7.47;70.90;97585.47;5096609;28;20388;-65
2022/03/15 06:23:53;;;;;;;8.67;3.20;;;;;;;7.52;70.40;97594.34;5114457;28;20748;-66
2022/03/15 06:26:20;;;;;;;6.83;3.53;;;;;;;6.98;72.77;97604.44;5095930;28;20400;-66
2022/03/15 06:28:46;;;;;;;7.78;3.40;;;;;;;7.31;71.84;97599.56;5113823;28;20420;-66
2022/03/15 06:31:11;;;;;;;6.70;3.28;;;;;;;7.39;71.07;97596.84;5114443;28;20749;-65
2022/03/15 06:33:37;;;;;;;4.07;3.20;;;;;;;7.45;70.71;97597.91;5114556;28;20395;-65
2022/03/15 06:36:06;;;;;;;6.23;3.20;;;;;;;7.25;71.93;97605.50;5095624;28;20476;-65
2022/03/15 06:38:31;;;;;;;7.43;3.38;;;;;;;7.62;70.81;97607.09;5113941;28;20387;-66
2022/03/15 06:40:58;;;;;;;7.77;3.70;;;;;;;7.33;71.62;97607.19;5114062;28;20408;-66
2022/03/15 06:43:24;;;;;;;7.65;3.78;;;;;;;7.51;70.93;97611.00;5096427;28;20384;-65
2022/03/15 06:45:49;;;;;;;8.27;3.63;;;;;;;7.74;70.39;97610.81;5096019;28;20499;-66
2022/03/15 06:48:15;;;;;;;5.47;3.57;;;;;;;7.53;71.86;97608.19;5114227;28;20388;-65
2022/03/15 06:50:41;;;;;;;8.00;3.60;;;;;;;7.46;71.77;97605.53;5114241;28;20385;-66
2022/03/15 06:53:07;;;;;;;7.00;3.78;;;;;;;7.44;71.62;97601.50;5113740;28;20757;-66
2022/03/15 06:55:33;;;;;;;5.03;3.35;;;;;;;7.28;72.65;97597.34;5095895;28;20404;-66
2022/03/15 06:57:59;;;;;;;6.40;3.30;;;;;;;7.41;72.26;97601.88;5113689;28;20391;-66
2022/03/15 07:00:24;;;;;;;7.20;3.50;;;;;;;7.78;70.66;97604.22;5113564;28;20396;-66
2022/03/15 07:02:50;;;;;;;6.78;3.60;;;;;;;8.01;69.88;97600.56;5095787;28;20392;-66
2022/03/15 07:05:15;;;;;;;7.53;4.00;;;;;;;7.99;69.95;97599.94;5114069;28;20385;-66
2022/03/15 07:07:41;;;;;;;4.17;3.20;;;;;;;8.04;69.48;97603.59;5113052;28;20426;-67
2022/03/15 07:10:08;;;;;;;6.40;3.50;;;;;;;7.56;70.85;97602.63;5113497;28;20497;-66
2022/03/15 07:12:37;;;;;;;6.80;3.38;;;;;;;7.90;69.80;97597.47;5112962;28;20420;-67
2022/03/15 07:15:04;;;;;;;5.93;3.40;;;;;;;7.95;69.95;97602.13;5095091;28;20392;-68
2022/03/15 07:17:31;;;;;;;8.10;3.60;;;;;;;8.11;69.31;97608.88;5096096;28;20733;-67
2022/03/15 07:19:57;;;;;;;7.68;3.55;;;;;;;7.82;70.29;97604.63;5112889;28;20384;-67
2022/03/15 07:22:24;;;;;;;6.07;3.58;;;;;;;7.90;70.22;97604.50;5113429;28;20398;-67
2022/03/15 07:24:51;;;;;;;7.45;3.50;;;;;;;8.24;68.74;97596.72;5095093;28;20483;-67
2022/03/15 07:27:16;;;;;;;5.22;3.40;;;;;;;8.17;68.90;97587.22;5113651;28;20442;-66
2022/03/15 07:29:42;;;;;;;4.95;3.17;;;;;;;8.05;69.87;97594.78;5113995;28;20484;-65
2022/03/15 07:32:07;;;;;;;5.20;3.40;;;;;;;8.09;69.46;97595.19;5113663;28;20384;-66
2022/03/15 07:34:32;;;;;;;6.00;3.22;;;;;;;8.14;68.97;97590.19;5113163;28;20743;-67
2022/03/15 07:36:58;;;;;;;5.90;3.47;;;;;;;8.22;68.52;97584.84;5113245;28;20425;-66
2022/03/15 07:39:23;;;;;;;5.35;2.90;;;;;;;7.98;69.48;97583.47;5094487;28;20993;-66
2022/03/15 07:41:50;;;;;;;4.93;3.10;;;;;;;8.15;69.25;97581.38;5113471;28;20570;-67
2022/03/15 07:44:15;;;;;;;6.45;3.42;;;;;;;8.02;69.91;97587.31;5112732;28;20463;-66
2022/03/15 07:46:48;;;;;;;5.93;3.10;;;;;;;8.04;69.41;97584.50;5113042;28;20495;-67
2022/03/15 07:49:13;;;;;;;5.75;3.50;;;;;;;8.22;69.22;97574.38;5111573;28;20479;-66
2022/03/15 07:51:38;;;;;;;4.68;2.95;;;;;;;8.10;69.24;97568.09;5111930;28;20480;-67
2022/03/15 07:54:04;;;;;;;6.57;3.50;;;;;;;8.53;69.03;97568.75;5112839;28;20388;-65
2022/03/15 07:56:29;;;;;;;6.13;3.40;;;;;;;8.32;69.40;97569.66;5113016;28;20891;-66
2022/03/15 07:58:55;;;;;;;5.90;3.30;;;;;;;8.53;68.89;97568.75;5112653;28;20885;-66
2022/03/15 08:01:20;;;;;;;6.55;3.63;;;;;;;8.49;68.89;97565.72;5111499;28;20395;-65
2022/03/15 08:03:46;;;;;;;5.93;3.13;;;;;;;8.54;67.84;97567.75;5111815;28;20381;-66
2022/03/15 08:06:11;;;;;;;4.87;3.03;;;;;;;8.66;67.16;97560.97;5111766;28;20431;-66
2022/03/15 08:08:37;;;;;;;6.17;3.10;;;;;;;8.78;67.45;97551.56;5112206;28;20406;-66
2022/03/15 08:11:06;;;;;;;7.47;3.28;;;;;;;9.06;66.06;97554.88;5094041;28;20877;-66
2022/03/15 08:13:34;;;;;;;5.20;2.92;;;;;;;8.51;67.96;97561.13;5111664;28;20389;-66
2022/03/15 08:15:59;;;;;;;7.03;3.10;;;;;;;9.01;67.89;97557.28;5112100;28;20392;-66
2022/03/15 08:18:25;;;;;;;5.90;3.17;;;;;;;9.29;66.03;97561.56;5112292;28;20460;-64
2022/03/15 08:20:50;;;;;;;4.03;2.80;;;;;;;9.33;65.64;97563.56;5111823;28;20388;-64
2022/03/15 08:23:17;;;;;;;5.77;3.03;;;;;;;9.74;64.85;97562.59;5094080;28;20403;-64
2022/03/15 08:25:42;;;;;;;5.85;2.90;;;;;;;9.71;63.65;97557.75;5106129;28;20393;-64
2022/03/15 08:28:07;;;;;;;5.10;3.13;;;;;;;9.55;64.43;97556.34;5103538;28;20887;-64
2022/03/15 08:30:33;;;;;;;5.10;3.30;;;;;;;9.64;64.19;97549.88;5110695;28;20460;-64
2022/03/15 08:32:58;;;;;;;5.33;3.17;;;;;;;9.94;63.79;97552.91;5110948;28;20446;-66
2022/03/15 08:35:24;;;;;;;6.83;2.70;;;;;;;10.30;61.88;97548.06;5111296;28;20395;-66
2022/03/15 08:37:53;;;;;;;4.07;2.73;;;;;;;10.19;61.49;97550.50;5093580;28;20529;-64
2022/03/15 08:40:21;;;;;;;5.32;2.67;;;;;;;10.33;61.24;97552.06;5093190;28;20416;-64
2022/03/15 08:42:47;;;;;;;4.10;2.65;;;;;;;10.54;60.42;97559.66;5098174;28;20896;-65
2022/03/15 08:45:12;;;;;;;5.07;2.73;;;;;;;10.80;59.44;97554.31;5093810;28;20469;-64
2022/03/15 08:47:38;;;;;;;7.37;2.70;;;;;;;10.57;60.26;97546.16;5093302;28;20452;-65
2022/03/15 08:50:05;;;;;;;4.30;2.70;;;;;;;10.70;59.87;97545.28;5112227;28;20383;-65
2022/03/15 08:52:31;;;;;;;6.53;2.88;;;;;;;10.71;59.25;97555.56;5112399;28;20380;-64
2022/03/15 08:54:56;;;;;;;4.88;2.60;;;;;;;11.16;58.07;97547.66;5112416;28;20382;-64
2022/03/15 08:57:23;;;;;;;3.63;2.40;;;;;;;10.85;58.95;97551.06;5112915;28;20413;-64
2022/03/15 08:59:49;;;;;;;4.27;2.80;;;;;;;10.86;59.41;97546.63;5111772;28;20380;-65
2022/03/15 09:02:17;;;;;;;4.57;2.63;;;;;;;10.90;60.24;97548.63;5111939;28;20845;-65
2022/03/15 09:04:45;;;;;;;4.53;3.30;;;;;;;10.66;60.96;97552.75;5112004;28;20384;-64
2022/03/15 09:07:10;;;;;;;4.13;2.70;;;;;;;10.64;60.07;97551.38;5112225;28;20491;-64
2022/03/15 09:09:36;;;;;;;6.60;3.10;;;;;;;10.82;60.58;97554.09;5112219;28;20480;-64
2022/03/15 09:12:03;;;;;;;5.60;2.80;;;;;;;10.94;60.88;97555.03;5111269;28;20703;-64
2022/03/15 09:14:28;;;;;;;6.03;2.97;;;;;;;11.06;61.72;97563.06;5112288;28;20394;-64
2022/03/15 09:16:54;;;;;;;5.30;3.10;;;;;;;10.98;63.73;97552.84;5094104;28;20372;-64
2022/03/15 09:19:19;;;;;;;5.05;3.30;;;;;;;10.77;64.99;97539.00;5111839;28;20849;-64
2022/03/15 09:21:45;;;;;;;4.67;3.30;;;;;;;10.56;67.92;97541.91;5111904;28;20465;-65
2022/03/15 09:24:11;;;;;;;5.75;3.20;;;;;;;10.81;67.37;97539.41;5112187;28;20756;-64
2022/03/15 09:26:36;;;;;;;5.32;2.90;;;;;;;10.41;69.17;97542.16;5111964;28;20860;-63
2022/03/15 09:29:03;;;;;;;5.27;3.23;;;;;;;10.74;69.86;97536.81;5112198;28;20401;-64
2022/03/15 09:31:28;;;;;;;6.65;3.10;;;;;;;10.27;72.72;97529.28;5112550;28;20399;-62
2022/03/15 09:33:54;;;;;;;3.77;2.90;;;;;;;10.32;72.91;97527.66;5111863;28;20833;-64
2022/03/15 09:36:19;;;;;;;4.68;2.97;;;;;;;10.51;73.62;97522.56;5111995;28;20391;-66
2022/03/15 09:38:45;;;;;;;4.27;2.83;;;;;;;10.60;73.77;97522.13;5111837;28;20373;-64
2022/03/15 09:41:14;;;;;;;5.30;3.20;;;;;;;10.47;75.11;97514.34;5111973;28;20400;-64
2022/03/15 09:43:45;;;;;;;5.20;3.00;;;;;;;10.27;76.48;97506.53;5112112;28;20833;-65
2022/03/15 09:46:12;;;;;;;5.18;3.20;;;;;;;10.06;77.72;97501.53;5112070;28;20507;-66
2022/03/15 09:48:39;;;;;;;6.15;3.45;;;;;;;10.22;78.45;97484.56;5112070;28;20719;-64
2022/03/15 09:51:05;;;;;;;3.57;3.07;;;;;;;10.22;77.64;97488.00;5111858;28;20380;-65
2022/03/15 09:53:36;;;;;;;3.35;2.95;;;;;;;10.49;77.20;97483.47;5093665;28;20402;-65
2022/03/15 09:56:01;;;;;;;5.78;3.03;;;;;;;10.37;79.53;97477.25;5094112;28;20396;-65
2022/03/15 09:58:27;;;;;;;6.93;3.00;;;;;;;10.48;78.65;97473.22;5111917;28;20929;-67
2022/03/15 10:00:54;;;;;;;3.97;3.05;;;;;;;10.11;79.68;97467.66;5111616;28;20419;-64
2022/03/15 10:03:21;;;;;;;4.60;3.28;;;;;;;10.27;80.68;97458.56;5111511;28;20452;-64
2022/03/15 10:05:49;;;;;;;5.55;3.00;;;;;;;10.58;78.69;97450.78;5111707;28;20373;-66
2022/03/15 10:08:16;;;;;;;5.72;2.88;;;;;;;10.73;77.53;97451.28;5093385;28;20468;-65
2022/03/15 10:10:42;;;;;;;5.22;2.90;;;;;;;10.48;79.63;97452.25;5111399;28;20407;-65
2022/03/15 10:13:09;;;;;;;8.40;3.03;;;;;;;10.53;77.71;97450.59;5114256;28;20448;-64
2022/03/15 10:15:35;;;;;;;4.50;2.58;;;;;;;10.91;76.61;97445.31;5115255;28;20378;-64
2022/03/15 10:18:04;;;;;;;6.88;2.97;;;;;;;10.98;75.38;97427.69;5115389;28;20377;-64
2022/03/15 10:20:39;;;;;;;8.67;4.13;;;;;;;10.01;76.66;97428.81;5115014;28;20428;-64
2022/03/15 10:23:05;;;;;;;7.80;4.38;;;;;;;9.67;78.49;97425.69;5115198;28;20388;-63
2022/03/15 10:25:32;;;;;;;5.37;4.13;;;;;;;9.86;79.38;97422.22;5115168;28;20411;-64
2022/03/15 10:28:00;;;;;;;7.37;4.50;;;;;;;9.72;78.29;97410.97;5096948;28;20404;-64
2022/03/15 10:30:28;;;;;;;6.73;4.80;;;;;;;9.97;77.98;97408.50;5096747;28;20384;-64
2022/03/15 10:32:54;;;;;;;7.83;4.73;;;;;;;9.51;81.53;97409.41;5114555;28;20402;-65
2022/03/15 10:35:22;;;;;;;8.77;4.32;;;;;;;9.87;78.96;97397.63;5114720;28;20388;-64
2022/03/15 10:37:50;;;;;;;6.05;4.40;;;;;;;9.72;79.78;97389.22;5115183;28;20841;-64
2022/03/15 10:40:16;;;;;;;7.45;4.10;;;;;;;10.15;79.70;97400.75;5079832;28;20507;-64
2022/03/15 10:42:44;;;;;;;6.22;3.90;;;;;;;10.13;78.39;97387.06;5096626;28;20392;-64
2022/03/15 10:45:22;;;;;;;6.18;3.90;;;;;;;10.41;77.30;97392.81;5114810;28;20407;-63
2022/03/15 10:47:54;;;;;;;6.78;4.10;;;;;;;10.53;77.93;97398.19;5114290;28;20396;-64
2022/03/15 10:50:21;;;;;;;5.60;4.22;;;;;;;10.49;78.32;97390.91;5113885;28;20678;-63
2022/03/15 10:52:47;;;;;;;7.35;4.15;;;;;;;9.88;81.51;97379.09;5094156;28;20409;-64
2022/03/15 10:55:25;;;;;;;8.30;4.20;;;;;;;10.18;81.79;97383.84;5108534;28;20366;-64
2022/03/15 10:58:01;;;;;;;6.00;4.50;;;;;;;10.03;82.82;97395.34;5094333;28;20432;-64
2022/03/15 11:00:35;;;;;;;6.97;3.88;;;;;;;9.83;83.46;97380.72;5093956;28;20388;-64
2022/03/15 11:03:01;;;;;;;5.18;3.80;;;;;;;10.15;82.40;97378.97;5094184;28;20520;-64
2022/03/15 11:05:35;;;;;;;6.87;4.43;;;;;;;9.92;84.15;97377.66;5099071;28;20463;-64
2022/03/15 11:08:12;;;;;;;7.53;4.50;;;;;;;9.92;86.58;97382.09;5113410;28;20545;-65
2022/03/15 11:10:39;;;;;;;7.25;4.72;;;;;;;9.84;87.66;97371.88;5112805;28;20434;-64
2022/03/15 11:13:11;;;;;;;6.25;4.70;;;;;;;10.01;87.83;97371.19;5112984;28;20396;-65
2022/03/15 11:15:40;;;;;;;9.27;4.70;;;;;;;10.15;86.02;97364.06;5113574;28;20736;-63
2022/03/15 11:18:08;;;;;;;6.53;4.50;;;;;;;10.24;84.71;97365.47;5113137;28;20475;-64
2022/03/15 11:20:36;;;;;;;6.75;4.80;;;;;;;9.84;88.59;97354.34;5113039;28;20389;-64
2022/03/15 11:23:03;;;;;;;9.23;5.70;;;;;;;9.84;89.77;97356.97;5113472;28;20487;-64
2022/03/15 11:25:35;;;;;;;7.82;5.47;;;;;;;9.87;91.50;97353.13;5113442;28;20387;-63
2022/03/15 11:28:03;;;;;;;8.63;4.97;;;;;;;9.98;90.58;97342.78;5113426;28;20546;-63
2022/03/15 11:30:30;;;;;;;7.13;5.30;;;;;;;9.81;91.78;97339.03;5106654;28;20380;-64
2022/03/15 11:32:56;;;;;;;7.38;5.80;;;;;;;9.74;93.52;97333.06;5094348;28;20509;-63
2022/03/15 11:35:23;;;;;;;8.03;6.00;;;;;;;9.74;95.77;97335.66;5110467;28;20483;-64
2022/03/15 11:37:50;;;;;;;8.68;6.10;;;;;;;10.00;93.01;97330.31;5112813;28;20392;-64